Green Bay, Virginia
Current Conditions -  °F | °C
As of 2:15 PM on Friday 28 Nov 2014 (Local Time) from KW81 Reporting Station
Clear Clear  
Wind Chill: 38°   Ceiling: Unl
Heat Index: 41°   Visibility: 10mi
Dew Point: 17°   Wind: 5mph
Humidity: 38%   Direction: 290°WNW
Pressure: 30.26"   Gusts: NA
Location:  37.13°N, 78.31°W
Report Text: KW81 281915Z AUTO 29004KT 10SM CLR 05/M08 A3026 RMK AO1 T00521082
Loading
Personal Weather Stations






























Interactive Weather Map New forecast layout! Learn more

10-Day Weather Forecast

Advertisements
Track Severe Weather on mobile